Time;durP1;ratioP1;P1;durP2;ratioP2;P2;SDS_P1;SDS_P2;PMS_P1;PMS_P2;Temp;Humidity;BMP_temperature;BMP_pressure;BME280_temperature;BME280_humidity;BME280_pressure;Samples;Min_cycle;Max_cycle;Signal;HPM_P1;HPM_P2
2024/01/05 00:01:37;;;;;;;20.73;6.53;;;;;;;;;;7403570;19;20090;-77
2024/01/05 00:04:03;;;;;;;15.32;5.82;;;;;;;;;;7377372;19;20506;-77
2024/01/05 00:06:29;;;;;;;15.30;6.32;;;;;;;;;;7380590;19;20007;-77
2024/01/05 00:08:55;;;;;;;15.32;5.70;;;;;;;;;;7382264;19;20019;-77
2024/01/05 00:11:21;;;;;;;16.00;6.20;;;;;;;;;;7392503;19;20022;-77
2024/01/05 00:13:47;;;;;;;15.82;6.53;;;;;;;;;;7414333;19;20002;-77
2024/01/05 00:16:20;;;;;;;16.77;6.50;;;;;;;;;;7378533;19;20019;-77
2024/01/05 00:18:46;;;;;;;17.30;6.32;;;;;;;;;;7381831;19;20453;-77
2024/01/05 00:21:27;;;;;;;19.13;6.05;;;;;;;;;;7385133;19;20087;-77
2024/01/05 00:23:53;;;;;;;;;;;;;;;;;;7385566;19;20031;-77
2024/01/05 00:26:19;;;;;;;16.80;5.60;;;;;;;;;;7383361;19;19911;-77
2024/01/05 00:28:46;;;;;;;13.82;5.85;;;;;;;;;;7407751;19;20078;-77
2024/01/05 00:31:13;;;;;;;18.70;6.60;;;;;;;;;;7385613;19;20012;-77
2024/01/05 00:33:39;;;;;;;16.58;5.70;;;;;;;;;;7385839;19;20009;-77
2024/01/05 00:36:05;;;;;;;16.88;5.38;;;;;;;;;;7391890;19;20006;-77
2024/01/05 00:38:31;;;;;;;17.25;5.30;;;;;;;;;;7389828;19;20324;-77
2024/01/05 00:40:56;;;;;;;14.30;5.57;;;;;;;;;;7410194;19;19994;-77
2024/01/05 00:43:22;;;;;;;15.55;5.57;;;;;;;;;;7390626;19;20006;-77
2024/01/05 00:45:48;;;;;;;20.58;5.53;;;;;;;;;;7389909;19;20014;-77
2024/01/05 00:48:14;;;;;;;18.23;5.72;;;;;;;;;;7390873;19;20003;-79
2024/01/05 00:50:39;;;;;;;18.45;5.55;;;;;;;;;;7389296;19;20022;-79
2024/01/05 00:53:05;;;;;;;14.15;5.38;;;;;;;;;;7417148;19;20007;-77
2024/01/05 00:55:31;;;;;;;19.40;5.88;;;;;;;;;;7391897;19;20011;-77
2024/01/05 00:57:56;;;;;;;15.60;5.75;;;;;;;;;;7390862;19;20029;-77
2024/01/05 01:00:21;;;;;;;15.68;5.28;;;;;;;;;;7391210;19;20034;-77
2024/01/05 01:02:46;;;;;;;20.58;5.57;;;;;;;;;;7393002;19;20006;-77
2024/01/05 01:05:12;;;;;;;17.83;5.35;;;;;;;;;;7395429;19;20002;-77
2024/01/05 01:07:39;;;;;;;18.15;5.10;;;;;;;;;;7421272;19;20047;-77
2024/01/05 01:10:05;;;;;;;14.43;5.28;;;;;;;;;;7398399;19;20028;-77
2024/01/05 01:12:31;;;;;;;14.82;4.97;;;;;;;;;;7394737;19;20010;-77
2024/01/05 01:14:56;;;;;;;16.30;4.97;;;;;;;;;;7396203;19;19998;-77
2024/01/05 01:17:22;;;;;;;12.25;4.35;;;;;;;;;;7395863;19;19999;-77
2024/01/05 01:19:48;;;;;;;17.23;4.82;;;;;;;;;;7412240;19;20007;-77
2024/01/05 01:22:14;;;;;;;17.02;4.95;;;;;;;;;;7394472;19;20003;-77
2024/01/05 01:24:39;;;;;;;23.85;4.97;;;;;;;;;;7387910;19;20002;-77
2024/01/05 01:27:05;;;;;;;18.48;5.18;;;;;;;;;;7387053;19;19998;-77
2024/01/05 01:29:30;;;;;;;25.75;5.85;;;;;;;;;;7387813;19;20032;-77
2024/01/05 01:31:55;;;;;;;13.77;4.60;;;;;;;;;;7410837;19;19999;-77
2024/01/05 01:34:21;;;;;;;16.80;4.93;;;;;;;;;;7390500;19;20006;-77
2024/01/05 01:36:46;;;;;;;15.85;4.90;;;;;;;;;;7389834;19;19998;-77
2024/01/05 01:39:11;;;;;;;14.80;5.05;;;;;;;;;;7389665;19;20014;-77
2024/01/05 01:41:37;;;;;;;16.35;4.70;;;;;;;;;;7396097;19;20002;-77
2024/01/05 01:44:03;;;;;;;14.57;5.03;;;;;;;;;;7419244;19;19994;-77
2024/01/05 01:46:31;;;;;;;14.02;4.88;;;;;;;;;;7399306;19;20473;-77
2024/01/05 01:48:57;;;;;;;17.17;5.20;;;;;;;;;;7398126;19;20066;-77
2024/01/05 01:51:32;;;;;;;17.42;5.43;;;;;;;;;;7397723;19;19995;-77
2024/01/05 01:53:58;;;;;;;11.52;4.90;;;;;;;;;;7401121;19;20003;-77
2024/01/05 01:56:24;;;;;;;13.00;5.38;;;;;;;;;;7396541;19;20014;-78
2024/01/05 01:58:50;;;;;;;12.32;4.72;;;;;;;;;;7410170;19;20483;-77
2024/01/05 02:01:16;;;;;;;13.23;4.88;;;;;;;;;;7389473;19;19999;-77
2024/01/05 02:03:42;;;;;;;16.13;4.50;;;;;;;;;;7384249;19;19999;-77
2024/01/05 02:06:08;;;;;;;12.52;4.70;;;;;;;;;;7380462;19;20002;-78
2024/01/05 02:08:34;;;;;;;11.70;5.00;;;;;;;;;;7383635;19;20472;-76
2024/01/05 02:10:59;;;;;;;18.05;5.40;;;;;;;;;;7403954;19;19995;-77
2024/01/05 02:13:24;;;;;;;14.85;4.90;;;;;;;;;;7386887;19;20005;-77
2024/01/05 02:15:50;;;;;;;14.18;4.28;;;;;;;;;;7389292;19;19999;-77
2024/01/05 02:18:15;;;;;;;17.13;4.60;;;;;;;;;;7383414;19;20059;-77
2024/01/05 02:20:44;;;;;;;14.15;4.68;;;;;;;;;;7388413;19;20038;-77
2024/01/05 02:23:26;;;;;;;18.13;4.95;;;;;;;;;;7389733;19;20015;-77
2024/01/05 02:25:52;;;;;;;;;;;;;;;;;;7409292;19;19998;-77
2024/01/05 02:28:18;;;;;;;17.00;4.30;;;;;;;;;;7387091;19;19911;-77
2024/01/05 02:30:43;;;;;;;16.17;4.32;;;;;;;;;;7392956;19;20011;-76
2024/01/05 02:33:10;;;;;;;21.38;4.90;;;;;;;;;;7388451;19;20034;-77
2024/01/05 02:35:37;;;;;;;16.15;4.97;;;;;;;;;;7391148;19;20072;-76
2024/01/05 02:38:03;;;;;;;14.88;5.03;;;;;;;;;;7411831;19;19990;-77
2024/01/05 02:40:28;;;;;;;13.25;4.70;;;;;;;;;;7389761;19;20031;-76
2024/01/05 02:42:54;;;;;;;15.90;5.10;;;;;;;;;;7389577;19;20010;-77
2024/01/05 02:45:20;;;;;;;13.05;4.22;;;;;;;;;;7384310;19;20138;-77
2024/01/05 02:47:51;;;;;;;20.15;4.50;;;;;;;;;;7385949;19;20005;-76
2024/01/05 02:50:18;;;;;;;17.15;4.35;;;;;;;;;;7386710;19;20465;-77
2024/01/05 02:52:43;;;;;;;15.23;4.45;;;;;;;;;;7406846;19;19999;-78
2024/01/05 02:55:13;;;;;;;12.40;4.35;;;;;;;;;;7387394;19;20013;-77
2024/01/05 02:57:39;;;;;;;16.92;4.57;;;;;;;;;;7387114;19;20009;-77
2024/01/05 03:00:05;;;;;;;13.52;4.25;;;;;;;;;;7385343;19;20524;-77
2024/01/05 03:02:31;;;;;;;12.80;3.85;;;;;;;;;;7388567;19;19998;-76
2024/01/05 03:04:57;;;;;;;12.00;4.63;;;;;;;;;;7405620;19;20002;-76
2024/01/05 03:07:23;;;;;;;15.60;4.63;;;;;;;;;;7385096;19;20043;-77
2024/01/05 03:09:49;;;;;;;14.32;4.57;;;;;;;;;;7387381;19;20019;-77
2024/01/05 03:12:16;;;;;;;12.18;4.28;;;;;;;;;;7385569;19;19998;-77
2024/01/05 03:14:41;;;;;;;17.92;4.53;;;;;;;;;;7386249;19;20003;-77
2024/01/05 03:17:07;;;;;;;15.30;4.70;;;;;;;;;;7406047;19;20002;-77
2024/01/05 03:19:32;;;;;;;17.48;5.05;;;;;;;;;;7395061;19;20002;-77
2024/01/05 03:21:58;;;;;;;13.52;4.55;;;;;;;;;;7378762;19;20083;-76
2024/01/05 03:24:24;;;;;;;16.92;4.47;;;;;;;;;;7378087;19;20002;-76
2024/01/05 03:26:50;;;;;;;15.48;4.65;;;;;;;;;;7382638;19;20098;-76
2024/01/05 03:29:17;;;;;;;14.10;4.63;;;;;;;;;;7383760;19;19998;-77
2024/01/05 03:31:46;;;;;;;13.68;4.30;;;;;;;;;;7412048;19;20046;-77
2024/01/05 03:34:13;;;;;;;19.35;4.70;;;;;;;;;;7385199;19;20030;-78
2024/01/05 03:36:39;;;;;;;16.65;4.63;;;;;;;;;;7381390;19;20007;-76
2024/01/05 03:39:07;;;;;;;12.85;4.22;;;;;;;;;;7382059;19;20006;-78
2024/01/05 03:41:32;;;;;;;13.98;4.88;;;;;;;;;;7387919;19;20010;-78
2024/01/05 03:43:58;;;;;;;14.27;4.57;;;;;;;;;;7407486;19;20003;-78
2024/01/05 03:46:23;;;;;;;16.20;4.10;;;;;;;;;;7388353;19;20070;-78
2024/01/05 03:48:49;;;;;;;15.25;4.25;;;;;;;;;;7388482;19;20007;-77
2024/01/05 03:51:14;;;;;;;15.50;4.60;;;;;;;;;;7389815;19;20012;-77
2024/01/05 03:53:40;;;;;;;14.00;4.32;;;;;;;;;;7384064;19;19999;-77
2024/01/05 03:56:06;;;;;;;14.43;4.10;;;;;;;;;;7412059;19;20013;-77
2024/01/05 03:58:31;;;;;;;14.95;4.60;;;;;;;;;;7388461;19;20029;-77
2024/01/05 04:00:57;;;;;;;16.40;4.38;;;;;;;;;;7387653;19;20002;-77
2024/01/05 04:03:23;;;;;;;14.98;4.20;;;;;;;;;;7389152;19;20072;-77
2024/01/05 04:05:48;;;;;;;13.00;4.70;;;;;;;;;;7385877;19;20002;-77
2024/01/05 04:08:14;;;;;;;12.00;4.00;;;;;;;;;;7387020;19;20057;-77
2024/01/05 04:10:40;;;;;;;16.45;4.72;;;;;;;;;;7406453;19;19994;-77
2024/01/05 04:13:07;;;;;;;13.52;4.40;;;;;;;;;;7391516;19;20003;-77
2024/01/05 04:15:37;;;;;;;14.90;4.50;;;;;;;;;;7387066;19;20504;-77
2024/01/05 04:18:06;;;;;;;17.05;4.50;;;;;;;;;;7386298;19;20003;-76
2024/01/05 04:20:32;;;;;;;11.23;4.10;;;;;;;;;;7386350;19;20066;-77
2024/01/05 04:23:00;;;;;;;11.20;4.10;;;;;;;;;;7409038;19;20007;-77
2024/01/05 04:25:26;;;;;;;12.75;4.40;;;;;;;;;;7386340;19;20023;-77
2024/01/05 04:27:52;;;;;;;22.00;5.30;;;;;;;;;;7391281;19;20006;-77
2024/01/05 04:30:20;;;;;;;16.55;4.43;;;;;;;;;;7386714;19;20040;-77
2024/01/05 04:32:46;;;;;;;16.95;4.07;;;;;;;;;;7384503;19;20003;-76
2024/01/05 04:35:11;;;;;;;15.27;4.53;;;;;;;;;;7381005;19;20014;-77
2024/01/05 04:37:36;;;;;;;17.95;4.85;;;;;;;;;;7408344;19;20027;-76
2024/01/05 04:40:02;;;;;;;9.10;4.03;;;;;;;;;;7384460;19;20010;-76
2024/01/05 04:42:29;;;;;;;17.55;4.70;;;;;;;;;;7385089;19;20013;-77
2024/01/05 04:44:55;;;;;;;16.45;4.50;;;;;;;;;;7393433;19;20026;-77
2024/01/05 04:47:21;;;;;;;17.60;4.13;;;;;;;;;;7385284;19;20011;-77
2024/01/05 04:49:48;;;;;;;19.65;4.57;;;;;;;;;;7399334;19;20006;-77
2024/01/05 04:52:14;;;;;;;13.00;4.47;;;;;;;;;;7378717;19;20007;-77
2024/01/05 04:54:39;;;;;;;15.35;4.38;;;;;;;;;;7379059;19;20021;-77
2024/01/05 04:57:06;;;;;;;15.02;4.32;;;;;;;;;;7386081;19;20018;-77
2024/01/05 04:59:32;;;;;;;11.55;4.15;;;;;;;;;;7380830;19;20021;-77
2024/01/05 05:01:59;;;;;;;14.13;4.55;;;;;;;;;;7408337;19;19998;-77
2024/01/05 05:04:24;;;;;;;15.43;4.72;;;;;;;;;;7388357;19;20019;-78
2024/01/05 05:06:50;;;;;;;14.27;4.57;;;;;;;;;;7387070;19;20006;-77
2024/01/05 05:09:15;;;;;;;16.38;4.35;;;;;;;;;;7387404;19;20072;-77
2024/01/05 05:11:41;;;;;;;19.88;5.45;;;;;;;;;;7392740;19;20022;-77
2024/01/05 05:14:06;;;;;;;12.95;4.63;;;;;;;;;;7415840;19;20023;-77
2024/01/05 05:16:32;;;;;;;12.98;4.63;;;;;;;;;;7399379;19;19987;-78
2024/01/05 05:18:58;;;;;;;17.02;4.93;;;;;;;;;;7399217;19;20006;-78
2024/01/05 05:21:25;;;;;;;13.15;4.95;;;;;;;;;;7398882;19;20019;-79
2024/01/05 05:23:51;;;;;;;14.00;4.65;;;;;;;;;;7403293;19;20013;-77
2024/01/05 05:26:16;;;;;;;14.35;5.03;;;;;;;;;;7393445;19;20543;-77
2024/01/05 05:28:42;;;;;;;13.05;4.85;;;;;;;;;;7415941;19;20018;-77
2024/01/05 05:31:07;;;;;;;16.60;4.80;;;;;;;;;;7395164;19;20119;-77
2024/01/05 05:33:33;;;;;;;16.33;4.63;;;;;;;;;;7390679;19;20002;-77
2024/01/05 05:35:58;;;;;;;16.77;5.07;;;;;;;;;;7390965;19;20010;-77
2024/01/05 05:38:24;;;;;;;14.85;4.55;;;;;;;;;;7392523;19;20027;-77
2024/01/05 05:40:49;;;;;;;14.90;5.00;;;;;;;;;;7416203;19;19999;-77
2024/01/05 05:43:16;;;;;;;10.93;4.20;;;;;;;;;;7391488;19;20086;-77
2024/01/05 05:45:44;;;;;;;13.90;4.70;;;;;;;;;;7391203;19;20015;-77
2024/01/05 05:48:12;;;;;;;15.60;6.50;;;;;;;;;;7386083;19;20027;-77
2024/01/05 05:50:37;;;;;;;13.65;4.95;;;;;;;;;;7392253;19;20034;-77
2024/01/05 05:53:03;;;;;;;14.13;6.22;;;;;;;;;;7411948;19;20477;-77
2024/01/05 05:55:29;;;;;;;16.52;5.22;;;;;;;;;;7395785;19;20002;-77
2024/01/05 05:57:55;;;;;;;16.17;4.68;;;;;;;;;;7392674;19;20002;-77
2024/01/05 06:00:21;;;;;;;14.77;6.57;;;;;;;;;;7393060;19;20007;-77
2024/01/05 06:02:46;;;;;;;11.75;5.43;;;;;;;;;;7394884;19;20371;-77
2024/01/05 06:05:12;;;;;;;19.20;8.40;;;;;;;;;;7396343;19;20002;-77
2024/01/05 06:07:37;;;;;;;18.67;7.30;;;;;;;;;;7408564;19;20005;-76
2024/01/05 06:10:04;;;;;;;15.32;4.95;;;;;;;;;;7382340;19;20002;-75
2024/01/05 06:12:30;;;;;;;17.52;4.60;;;;;;;;;;7365773;19;20379;-74
2024/01/05 06:14:56;;;;;;;13.50;5.60;;;;;;;;;;7364113;19;20006;-74
2024/01/05 06:17:21;;;;;;;14.38;5.35;;;;;;;;;;7377041;19;20006;-76
2024/01/05 06:19:46;;;;;;;11.68;5.05;;;;;;;;;;7411086;19;20009;-77
2024/01/05 06:22:12;;;;;;;11.95;4.35;;;;;;;;;;7392909;19;20015;-77
2024/01/05 06:24:38;;;;;;;17.33;5.50;;;;;;;;;;7392629;19;20025;-77
2024/01/05 06:27:04;;;;;;;13.82;5.80;;;;;;;;;;7394836;19;20002;-77
2024/01/05 06:29:30;;;;;;;21.35;7.38;;;;;;;;;;7398314;19;20003;-77
2024/01/05 06:31:55;;;;;;;18.55;8.35;;;;;;;;;;7419121;19;20047;-77
2024/01/05 06:34:22;;;;;;;16.92;7.25;;;;;;;;;;7391587;19;20018;-77
2024/01/05 06:36:47;;;;;;;13.95;6.00;;;;;;;;;;7390712;19;20116;-77
2024/01/05 06:39:14;;;;;;;17.75;7.65;;;;;;;;;;7394133;19;20026;-77
2024/01/05 06:41:40;;;;;;;25.10;10.52;;;;;;;;;;7387847;19;20015;-77
2024/01/05 06:44:05;;;;;;;29.98;9.82;;;;;;;;;;7405548;19;20372;-77
2024/01/05 06:46:30;;;;;;;14.45;5.85;;;;;;;;;;7392690;19;20027;-77
2024/01/05 06:48:57;;;;;;;29.45;9.05;;;;;;;;;;7389918;19;20088;-77
2024/01/05 06:51:23;;;;;;;13.32;4.75;;;;;;;;;;7390487;19;19995;-77
2024/01/05 06:53:49;;;;;;;11.27;4.15;;;;;;;;;;7392550;19;19991;-77
2024/01/05 06:56:14;;;;;;;18.70;7.63;;;;;;;;;;7393540;19;19998;-77
2024/01/05 06:58:40;;;;;;;17.33;5.32;;;;;;;;;;7415716;19;20039;-77
2024/01/05 07:01:05;;;;;;;14.57;6.40;;;;;;;;;;7396907;19;20003;-77
2024/01/05 07:03:32;;;;;;;12.35;4.20;;;;;;;;;;7396159;19;19998;-77
2024/01/05 07:05:57;;;;;;;21.92;6.60;;;;;;;;;;7392152;19;20073;-76
2024/01/05 07:08:23;;;;;;;17.05;6.28;;;;;;;;;;7385310;19;20003;-77
2024/01/05 07:10:49;;;;;;;12.82;6.18;;;;;;;;;;7404898;19;19995;-77
2024/01/05 07:13:14;;;;;;;17.20;7.28;;;;;;;;;;7382322;19;20602;-77
2024/01/05 07:15:40;;;;;;;14.52;4.95;;;;;;;;;;7381368;19;21058;-77
2024/01/05 07:18:06;;;;;;;16.00;4.95;;;;;;;;;;7381968;19;20003;-77
2024/01/05 07:20:32;;;;;;;15.68;4.25;;;;;;;;;;7388964;19;20010;-77
2024/01/05 07:22:57;;;;;;;10.07;4.13;;;;;;;;;;7407646;19;20035;-77
2024/01/05 07:25:23;;;;;;;13.43;4.28;;;;;;;;;;7390596;19;20452;-76
2024/01/05 07:27:48;;;;;;;10.05;3.83;;;;;;;;;;7388111;19;20006;-77
2024/01/05 07:30:14;;;;;;;12.95;4.40;;;;;;;;;;7382392;19;20006;-77
2024/01/05 07:32:39;;;;;;;16.73;4.90;;;;;;;;;;7387010;19;20499;-76
2024/01/05 07:35:10;;;;;;;15.00;3.95;;;;;;;;;;7405942;19;20019;-77
2024/01/05 07:37:37;;;;;;;12.70;4.18;;;;;;;;;;7389167;19;20018;-77
2024/01/05 07:40:03;;;;;;;14.43;4.47;;;;;;;;;;7384661;19;20006;-77
2024/01/05 07:42:30;;;;;;;10.45;4.03;;;;;;;;;;7382977;19;20026;-76
2024/01/05 07:44:57;;;;;;;11.32;4.45;;;;;;;;;;7382338;19;20002;-77
2024/01/05 07:47:24;;;;;;;13.75;4.13;;;;;;;;;;7383611;19;19999;-76
2024/01/05 07:49:49;;;;;;;10.85;3.92;;;;;;;;;;7405753;19;20014;-77
2024/01/05 07:52:16;;;;;;;13.25;4.80;;;;;;;;;;7383506;19;20015;-77
2024/01/05 07:54:43;;;;;;;12.82;4.03;;;;;;;;;;7383769;19;20006;-77
2024/01/05 07:57:08;;;;;;;13.00;5.40;;;;;;;;;;7384869;19;20039;-77
2024/01/05 07:59:34;;;;;;;12.10;4.00;;;;;;;;;;7383540;19;20468;-76
2024/01/05 08:01:59;;;;;;;12.77;4.10;;;;;;;;;;7404394;19;20017;-77
2024/01/05 08:04:25;;;;;;;15.93;4.30;;;;;;;;;;7381140;19;20027;-77
2024/01/05 08:06:51;;;;;;;13.70;4.40;;;;;;;;;;7385359;19;20006;-77
2024/01/05 08:09:17;;;;;;;18.45;4.20;;;;;;;;;;7387400;19;19998;-77
2024/01/05 08:11:43;;;;;;;8.98;3.38;;;;;;;;;;7386930;19;20055;-77
2024/01/05 08:14:09;;;;;;;10.48;3.75;;;;;;;;;;7386792;19;19995;-77
2024/01/05 08:16:34;;;;;;;9.85;3.45;;;;;;;;;;7406867;19;20002;-77
2024/01/05 08:19:00;;;;;;;17.00;7.00;;;;;;;;;;7384245;19;20477;-77
2024/01/05 08:21:25;;;;;;;12.32;4.25;;;;;;;;;;7383864;19;20007;-76
2024/01/05 08:23:51;;;;;;;17.92;7.22;;;;;;;;;;7381023;19;20018;-76
2024/01/05 08:26:18;;;;;;;13.60;6.05;;;;;;;;;;7383445;19;19991;-76
2024/01/05 08:28:45;;;;;;;12.38;6.28;;;;;;;;;;7407361;19;20009;-76
2024/01/05 08:31:10;;;;;;;10.60;4.38;;;;;;;;;;7382889;19;20067;-77
2024/01/05 08:33:35;;;;;;;15.35;5.63;;;;;;;;;;7381027;19;20051;-76
2024/01/05 08:36:01;;;;;;;15.80;6.90;;;;;;;;;;7384219;19;19998;-78
2024/01/05 08:38:27;;;;;;;18.63;8.93;;;;;;;;;;7377149;19;20008;-77
2024/01/05 08:40:52;;;;;;;17.80;9.18;;;;;;;;;;7406024;19;20002;-76
2024/01/05 08:43:18;;;;;;;19.73;8.90;;;;;;;;;;7386987;19;20066;-76
2024/01/05 08:45:44;;;;;;;10.52;4.20;;;;;;;;;;7388477;19;19999;-76
2024/01/05 08:48:11;;;;;;;20.50;10.93;;;;;;;;;;7380097;19;20009;-75
2024/01/05 08:50:37;;;;;;;24.50;16.05;;;;;;;;;;7383575;19;20011;-78
2024/01/05 08:53:03;;;;;;;13.85;5.40;;;;;;;;;;7407986;19;20006;-77
2024/01/05 08:55:29;;;;;;;13.65;3.95;;;;;;;;;;7386157;19;19995;-77
2024/01/05 08:57:54;;;;;;;16.15;8.35;;;;;;;;;;7389642;19;19998;-77
2024/01/05 09:00:20;;;;;;;15.90;7.25;;;;;;;;;;7389133;19;19998;-77
2024/01/05 09:02:46;;;;;;;15.43;6.20;;;;;;;;;;7398206;19;20003;-77
2024/01/05 09:05:11;;;;;;;19.02;9.20;;;;;;;;;;7400243;19;19998;-77
2024/01/05 09:07:37;;;;;;;14.10;7.40;;;;;;;;;;7411902;19;20007;-77
2024/01/05 09:10:04;;;;;;;13.90;5.40;;;;;;;;;;7395502;19;20010;-78
2024/01/05 09:12:29;;;;;;;15.18;6.25;;;;;;;;;;7395158;19;20013;-78
2024/01/05 09:14:55;;;;;;;15.52;7.00;;;;;;;;;;7393667;19;20003;-77
2024/01/05 09:17:20;;;;;;;9.90;4.07;;;;;;;;;;7402921;19;20009;-77
2024/01/05 09:19:46;;;;;;;14.25;3.83;;;;;;;;;;7423301;19;20019;-78
2024/01/05 09:22:11;;;;;;;12.00;3.67;;;;;;;;;;7392519;19;20029;-77
2024/01/05 09:24:37;;;;;;;11.43;3.53;;;;;;;;;;7387531;19;20023;-77
2024/01/05 09:27:03;;;;;;;9.73;5.40;;;;;;;;;;7393698;19;19994;-77
2024/01/05 09:29:30;;;;;;;13.18;4.85;;;;;;;;;;7394583;19;20013;-77
2024/01/05 09:31:56;;;;;;;13.93;4.25;;;;;;;;;;7418411;19;20006;-77
2024/01/05 09:34:22;;;;;;;10.05;3.50;;;;;;;;;;7390827;19;20075;-77
2024/01/05 09:36:48;;;;;;;8.98;3.15;;;;;;;;;;7391057;19;20006;-77
2024/01/05 09:39:14;;;;;;;10.27;3.70;;;;;;;;;;7391835;19;20014;-77
2024/01/05 09:41:43;;;;;;;14.52;4.78;;;;;;;;;;7393577;19;19998;-77
2024/01/05 09:44:12;;;;;;;10.57;3.95;;;;;;;;;;7392849;19;20001;-77
2024/01/05 09:46:44;;;;;;;9.93;3.47;;;;;;;;;;7411492;19;19999;-77
2024/01/05 09:49:13;;;;;;;14.50;8.15;;;;;;;;;;7395001;19;20009;-77
2024/01/05 09:51:39;;;;;;;14.63;7.05;;;;;;;;;;7393990;19;20007;-77
2024/01/05 09:54:04;;;;;;;15.30;4.00;;;;;;;;;;7396208;19;20013;-77
2024/01/05 09:56:31;;;;;;;8.73;2.95;;;;;;;;;;7387505;19;20030;-77
2024/01/05 09:58:56;;;;;;;8.23;3.50;;;;;;;;;;7415095;19;19998;-77
2024/01/05 10:01:30;;;;;;;8.50;3.10;;;;;;;;;;7393341;19;20066;-77
2024/01/05 10:03:57;;;;;;;8.20;3.30;;;;;;;;;;7392269;19;20070;-77
2024/01/05 10:06:24;;;;;;;9.57;3.40;;;;;;;;;;7396691;19;20002;-77
2024/01/05 10:08:54;;;;;;;9.63;3.28;;;;;;;;;;7395699;19;20006;-77
2024/01/05 10:11:29;;;;;;;9.55;3.42;;;;;;;;;;7394819;19;20002;-78
2024/01/05 10:13:57;;;;;;;8.50;3.10;;;;;;;;;;7416951;19;20026;-77
2024/01/05 10:16:26;;;;;;;9.55;3.10;;;;;;;;;;7394084;19;20010;-77
2024/01/05 10:18:52;;;;;;;12.35;5.22;;;;;;;;;;7392918;19;20006;-77
2024/01/05 10:21:19;;;;;;;13.13;3.80;;;;;;;;;;7393500;19;20014;-77
2024/01/05 10:23:45;;;;;;;6.97;2.70;;;;;;;;;;7400963;19;20003;-77
2024/01/05 10:26:18;;;;;;;11.35;2.78;;;;;;;;;;7401705;19;20007;-77
2024/01/05 10:28:44;;;;;;;9.88;3.03;;;;;;;;;;7424419;19;20036;-77
2024/01/05 10:31:15;;;;;;;6.05;2.70;;;;;;;;;;7402669;19;20007;-77
2024/01/05 10:33:51;;;;;;;18.60;9.27;;;;;;;;;;7399732;19;20002;-77
2024/01/05 10:36:24;;;;;;;19.85;10.32;;;;;;;;;;7398095;19;20010;-76
2024/01/05 10:38:50;;;;;;;17.98;4.97;;;;;;;;;;7396090;19;20006;-77
2024/01/05 10:41:17;;;;;;;8.60;3.38;;;;;;;;;;7395603;19;20007;-76
2024/01/05 10:43:43;;;;;;;8.30;3.35;;;;;;;;;;7416627;19;20013;-76
2024/01/05 10:46:14;;;;;;;11.68;3.40;;;;;;;;;;7396335;19;20015;-77
2024/01/05 10:48:40;;;;;;;11.73;3.85;;;;;;;;;;7396124;19;20014;-76
2024/01/05 10:51:08;;;;;;;14.75;5.72;;;;;;;;;;7389338;19;21130;-76
2024/01/05 10:53:34;;;;;;;14.05;6.68;;;;;;;;;;7389315;19;20006;-77
2024/01/05 10:56:01;;;;;;;12.98;6.57;;;;;;;;;;7403063;19;19995;-76
2024/01/05 10:58:27;;;;;;;15.80;8.70;;;;;;;;;;7381891;19;20006;-76
2024/01/05 11:00:57;;;;;;;14.88;5.90;;;;;;;;;;7381725;19;20017;-76
2024/01/05 11:03:25;;;;;;;14.05;8.38;;;;;;;;;;7387649;19;20519;-77
2024/01/05 11:05:51;;;;;;;9.10;4.00;;;;;;;;;;7389031;19;20365;-76
2024/01/05 11:08:43;;;;;;;10.63;3.35;;;;;;;;;;7390176;19;20510;-76
2024/01/05 11:11:21;;;;;;;6.00;2.53;;;;;;;;;;7392234;19;20071;-77
2024/01/05 11:14:14;;;;;;;8.75;2.80;;;;;;;;;;7412116;19;19999;-76
2024/01/05 11:16:59;;;;;;;6.53;2.42;;;;;;;;;;7392629;19;20011;-76
2024/01/05 11:19:55;;;;;;;6.57;2.63;;;;;;;;;;7390604;19;20003;-77
2024/01/05 11:22:30;;;;;;;5.70;2.15;;;;;;;;;;7392393;19;20451;-77
2024/01/05 11:24:57;;;;;;;7.65;2.30;;;;;;;;;;7387131;19;20010;-76
2024/01/05 11:27:33;;;;;;;9.57;2.50;;;;;;;;;;7383735;19;20003;-76
2024/01/05 11:29:59;;;;;;;7.18;2.40;;;;;;;;;;7387167;19;20003;-76
2024/01/05 11:32:46;;;;;;;8.30;2.40;;;;;;;;;;7392113;19;19990;-76
2024/01/05 11:35:17;;;;;;;7.25;2.65;;;;;;;;;;7397838;19;20015;-76
2024/01/05 11:37:43;;;;;;;;;;;;;;;;;;7400109;19;19995;-77
2024/01/05 11:40:27;;;;;;;9.57;2.50;;;;;;;;;;7379718;19;19939;-76
2024/01/05 11:42:54;;;;;;;5.40;2.30;;;;;;;;;;7384543;19;20010;-76
2024/01/05 11:45:58;;;;;;;9.23;2.20;;;;;;;;;;7387648;19;20377;-76
2024/01/05 11:48:36;;;;;;;9.48;2.20;;;;;;;;;;7380371;19;20010;-76
2024/01/05 11:51:07;;;;;;;11.27;2.30;;;;;;;;;;7384110;19;21517;-76
2024/01/05 11:53:33;;;;;;;8.05;2.72;;;;;;;;;;7385379;19;20484;-76
2024/01/05 11:56:03;;;;;;;6.05;1.90;;;;;;;;;;7407612;19;20010;-76
2024/01/05 11:58:35;;;;;;;5.30;1.85;;;;;;;;;;7385461;19;19994;-76
2024/01/05 12:01:02;;;;;;;5.00;1.70;;;;;;;;;;7381609;19;19998;-76
2024/01/05 12:03:28;;;;;;;4.05;1.80;;;;;;;;;;7387353;19;20463;-76
2024/01/05 12:05:59;;;;;;;4.32;1.63;;;;;;;;;;7385105;19;20421;-76
2024/01/05 12:08:25;;;;;;;4.75;1.85;;;;;;;;;;7384963;19;20049;-77
2024/01/05 12:10:56;;;;;;;8.45;4.07;;;;;;;;;;7410317;19;19993;-76
2024/01/05 12:13:23;;;;;;;2.35;1.40;;;;;;;;;;7380268;19;20038;-76
2024/01/05 12:15:52;;;;;;;5.97;1.55;;;;;;;;;;7382956;19;20002;-76
2024/01/05 12:18:22;;;;;;;5.35;1.70;;;;;;;;;;7383501;19;19995;-77
2024/01/05 12:20:53;;;;;;;3.30;1.67;;;;;;;;;;7381595;19;20071;-76
2024/01/05 12:23:19;;;;;;;6.97;1.98;;;;;;;;;;7382536;19;20475;-77
2024/01/05 12:25:44;;;;;;;6.28;1.75;;;;;;;;;;7404698;19;20001;-77
2024/01/05 12:28:14;;;;;;;4.60;1.60;;;;;;;;;;7381195;19;20064;-77
2024/01/05 12:30:40;;;;;;;3.63;1.40;;;;;;;;;;7378729;19;20010;-76
2024/01/05 12:33:05;;;;;;;3.45;1.40;;;;;;;;;;7389393;19;19999;-76
2024/01/05 12:35:31;;;;;;;3.05;1.33;;;;;;;;;;7386791;19;20002;-76
2024/01/05 12:37:57;;;;;;;7.22;1.70;;;;;;;;;;7408044;19;20005;-77
2024/01/05 12:40:25;;;;;;;3.33;1.42;;;;;;;;;;7385107;19;20460;-77
2024/01/05 12:42:52;;;;;;;3.70;1.48;;;;;;;;;;7388840;19;19990;-77
2024/01/05 12:45:18;;;;;;;5.00;1.40;;;;;;;;;;7391814;19;20030;-78
2024/01/05 12:47:44;;;;;;;4.43;1.55;;;;;;;;;;7390414;19;19998;-77
2024/01/05 12:50:29;;;;;;;3.40;1.50;;;;;;;;;;7386810;19;20001;-78
2024/01/05 12:52:55;;;;;;;3.08;1.48;;;;;;;;;;7412467;19;20054;-77
2024/01/05 12:55:31;;;;;;;3.90;1.33;;;;;;;;;;7388231;19;20002;-77
2024/01/05 12:58:05;;;;;;;2.08;1.50;;;;;;;;;;7388225;19;19999;-77
2024/01/05 13:00:32;;;;;;;4.47;1.42;;;;;;;;;;7389995;19;19999;-77
2024/01/05 13:02:57;;;;;;;4.15;1.45;;;;;;;;;;7388426;19;20006;-77
2024/01/05 13:05:34;;;;;;;3.03;1.30;;;;;;;;;;7388466;19;19994;-78
2024/01/05 13:08:00;;;;;;;3.47;1.45;;;;;;;;;;7411916;19;20010;-77
2024/01/05 13:10:28;;;;;;;2.90;1.20;;;;;;;;;;7390363;19;21149;-77
2024/01/05 13:12:54;;;;;;;2.17;1.30;;;;;;;;;;7388674;19;20089;-77
2024/01/05 13:15:20;;;;;;;2.15;1.10;;;;;;;;;;7388560;19;20002;-77
2024/01/05 13:17:47;;;;;;;4.15;1.35;;;;;;;;;;7389053;19;20050;-78
2024/01/05 13:20:17;;;;;;;2.05;1.00;;;;;;;;;;7387764;19;20073;-77
2024/01/05 13:22:43;;;;;;;3.85;1.10;;;;;;;;;;7412713;19;20451;-77
2024/01/05 13:25:08;;;;;;;2.28;1.13;;;;;;;;;;7383865;19;20002;-77
2024/01/05 13:27:34;;;;;;;1.13;0.90;;;;;;;;;;7385317;19;20069;-77
2024/01/05 13:30:00;;;;;;;2.05;1.25;;;;;;;;;;7384315;19;20003;-77
2024/01/05 13:32:26;;;;;;;11.65;6.45;;;;;;;;;;7383230;19;20023;-77
2024/01/05 13:34:51;;;;;;;10.30;5.55;;;;;;;;;;7405109;19;19991;-76
2024/01/05 13:37:16;;;;;;;2.05;1.10;;;;;;;;;;7381795;19;20070;-78
2024/01/05 13:39:42;;;;;;;1.52;1.10;;;;;;;;;;7381148;19;20023;-76
2024/01/05 13:42:08;;;;;;;2.28;1.27;;;;;;;;;;7381580;19;19998;-76
2024/01/05 13:44:36;;;;;;;3.53;1.20;;;;;;;;;;7380227;19;20002;-76
2024/01/05 13:47:01;;;;;;;2.10;1.20;;;;;;;;;;7403818;19;20425;-76
2024/01/05 13:49:29;;;;;;;3.78;1.42;;;;;;;;;;7382091;19;20088;-77
2024/01/05 13:51:55;;;;;;;2.72;1.08;;;;;;;;;;7391091;19;20033;-76
2024/01/05 13:54:21;;;;;;;3.42;1.20;;;;;;;;;;7386647;19;20007;-76
2024/01/05 13:56:47;;;;;;;4.75;1.52;;;;;;;;;;7380188;19;20006;-76
2024/01/05 13:59:12;;;;;;;2.33;1.25;;;;;;;;;;7380655;19;20015;-77
2024/01/05 14:01:37;;;;;;;1.73;1.08;;;;;;;;;;7400264;19;20066;-76
2024/01/05 14:04:03;;;;;;;2.03;1.15;;;;;;;;;;7378943;19;20002;-76
2024/01/05 14:06:29;;;;;;;3.28;1.25;;;;;;;;;;7383293;19;20006;-77
2024/01/05 14:08:55;;;;;;;4.60;1.25;;;;;;;;;;7371227;19;20017;-76
2024/01/05 14:11:20;;;;;;;2.85;1.20;;;;;;;;;;7383908;19;20003;-76
2024/01/05 14:13:45;;;;;;;3.67;1.30;;;;;;;;;;7404105;19;20014;-76
2024/01/05 14:16:11;;;;;;;4.07;1.35;;;;;;;;;;7377612;19;20030;-76
2024/01/05 14:18:39;;;;;;;3.28;1.73;;;;;;;;;;7372080;19;20021;-76
2024/01/05 14:21:04;;;;;;;14.93;7.60;;;;;;;;;;7376246;19;20011;-76
2024/01/05 14:23:29;;;;;;;4.07;1.40;;;;;;;;;;7379455;19;20042;-76
2024/01/05 14:25:55;;;;;;;3.83;1.33;;;;;;;;;;7403330;19;20002;-77
2024/01/05 14:28:20;;;;;;;2.45;1.15;;;;;;;;;;7376869;19;20022;-77
2024/01/05 14:30:46;;;;;;;5.03;1.45;;;;;;;;;;7379554;19;20050;-78
2024/01/05 14:33:11;;;;;;;1.65;1.20;;;;;;;;;;7381303;19;20079;-76